createdAt,value
2022-08-29T00:00:00.045Z,0
2022-08-29T00:00:59.747Z,0.11944444444444444
2022-08-29T00:01:59.614Z,0
2022-08-29T00:03:01.387Z,0
2022-08-29T00:04:01.295Z,0
2022-08-29T00:05:01.096Z,0
2022-08-29T00:06:01.454Z,0
2022-08-29T00:07:02.544Z,0
2022-08-29T00:08:01.120Z,0.4361111111111111
2022-08-29T00:09:00.813Z,0
2022-08-29T00:10:00.521Z,0
2022-08-29T00:11:00.731Z,0
2022-08-29T00:12:00.451Z,0
2022-08-29T00:13:00.134Z,0
2022-08-29T00:13:59.834Z,0
2022-08-29T00:15:01.595Z,0
2022-08-29T00:16:01.281Z,0
2022-08-29T00:17:01.237Z,0
2022-08-29T00:18:01.005Z,0
2022-08-29T00:19:00.685Z,0
2022-08-29T00:20:00.383Z,0
2022-08-29T00:21:00.091Z,0
2022-08-29T00:21:59.739Z,0
2022-08-29T00:23:01.420Z,0
2022-08-29T00:24:01.223Z,0
2022-08-29T00:25:01.148Z,0.03888888888888889
2022-08-29T00:26:02.148Z,0
2022-08-29T00:27:01.467Z,0
2022-08-29T00:28:00.839Z,0.17777777777777778
2022-08-29T00:29:00.546Z,0.03888888888888889
2022-08-29T00:30:00.458Z,0
2022-08-29T00:31:00.124Z,0
2022-08-29T00:31:59.816Z,0
2022-08-29T00:33:01.545Z,0
2022-08-29T00:34:01.276Z,0
2022-08-29T00:35:00.918Z,0
2022-08-29T00:36:00.692Z,0
2022-08-29T00:37:01.115Z,0
2022-08-29T00:38:00.802Z,0
2022-08-29T00:39:01.115Z,0
2022-08-29T00:40:00.895Z,0
2022-08-29T00:41:00.822Z,0
2022-08-29T00:42:00.641Z,0
2022-08-29T00:43:01.056Z,0
2022-08-29T00:44:00.691Z,0
2022-08-29T00:45:00.353Z,0
2022-08-29T00:46:00.220Z,0
2022-08-29T00:46:59.991Z,0
2022-08-29T00:48:00.267Z,0
2022-08-29T00:48:59.969Z,0
2022-08-29T00:50:00.250Z,0
2022-08-29T00:50:59.882Z,0
2022-08-29T00:51:59.577Z,0
2022-08-29T00:53:02.670Z,0
2022-08-29T00:54:01.132Z,0
2022-08-29T00:55:00.827Z,0
2022-08-29T00:56:00.528Z,0
2022-08-29T00:57:00.200Z,0
2022-08-29T00:58:06.290Z,0
2022-08-29T00:59:01.466Z,0
2022-08-29T01:00:00.966Z,0
2022-08-29T01:01:00.722Z,0
2022-08-29T01:02:00.907Z,0
2022-08-29T01:03:10.967Z,0
2022-08-29T01:04:00.672Z,0
2022-08-29T01:05:00.367Z,0
2022-08-29T01:06:00.012Z,0
2022-08-29T01:06:59.890Z,0
2022-08-29T01:08:11.189Z,0
2022-08-29T01:09:00.711Z,0
2022-08-29T01:10:00.399Z,0
2022-08-29T01:11:01.451Z,0.08055555555555555
2022-08-29T01:12:01.277Z,0
2022-08-29T01:13:14.328Z,0
2022-08-29T01:14:01.052Z,0
2022-08-29T01:15:00.864Z,0
2022-08-29T01:16:00.753Z,0
2022-08-29T01:17:00.562Z,0
2022-08-29T01:18:15.376Z,0
2022-08-29T01:19:01.467Z,0
2022-08-29T01:20:01.339Z,0
2022-08-29T01:21:01.189Z,0
2022-08-29T01:22:00.981Z,0
2022-08-29T01:23:00.923Z,0
2022-08-29T01:24:00.815Z,0
2022-08-29T01:25:00.074Z,0
2022-08-29T01:25:59.797Z,0
2022-08-29T01:27:01.550Z,0.03888888888888889
2022-08-29T01:28:01.483Z,0
2022-08-29T01:29:01.151Z,0
2022-08-29T01:30:00.836Z,0
2022-08-29T01:31:00.862Z,0
2022-08-29T01:32:00.637Z,0
2022-08-29T01:33:00.360Z,0
2022-08-29T01:34:00.069Z,0
2022-08-29T01:34:59.897Z,0
2022-08-29T01:35:59.788Z,0
2022-08-29T01:37:01.523Z,0
2022-08-29T01:38:00.948Z,0
2022-08-29T01:39:00.597Z,0.03888888888888889
2022-08-29T01:40:00.358Z,0
2022-08-29T01:41:00.036Z,0
2022-08-29T01:41:59.704Z,0
2022-08-29T01:43:01.578Z,0
2022-08-29T01:44:01.354Z,0
2022-08-29T01:45:02.809Z,0
2022-08-29T01:46:01.140Z,0
2022-08-29T01:47:03.108Z,0
2022-08-29T01:48:03.556Z,0.35833333333333334
2022-08-29T01:49:01.270Z,0.2777777777777778
2022-08-29T01:50:00.867Z,0
2022-08-29T01:51:00.595Z,0.31666666666666665
2022-08-29T01:52:00.280Z,0.37777777777777777
2022-08-29T01:53:01.521Z,0
2022-08-29T01:54:00.893Z,0
2022-08-29T01:55:00.556Z,0
2022-08-29T01:56:00.417Z,0
2022-08-29T01:57:00.065Z,0
2022-08-29T01:57:59.796Z,0
2022-08-29T01:59:01.474Z,0
2022-08-29T02:00:01.546Z,0
2022-08-29T02:01:01.344Z,0
2022-08-29T02:02:01.258Z,0
2022-08-29T02:03:01.231Z,0
2022-08-29T02:04:00.857Z,0
2022-08-29T02:05:01.342Z,0
2022-08-29T02:06:00.901Z,0
2022-08-29T02:07:01.277Z,0
2022-08-29T02:08:00.588Z,0.31666666666666665
2022-08-29T02:09:00.292Z,0.25833333333333336
2022-08-29T02:09:59.979Z,0.3666666666666667
2022-08-29T02:10:59.693Z,0
2022-08-29T02:12:01.453Z,0.15833333333333333
2022-08-29T02:13:01.223Z,0.5555555555555556
2022-08-29T02:14:01.299Z,0
2022-08-29T02:15:00.934Z,0
2022-08-29T02:16:01.165Z,0
2022-08-29T02:17:00.957Z,0.35833333333333334
2022-08-29T02:18:00.650Z,0.08055555555555555
2022-08-29T02:19:00.353Z,0.011111111111111112
2022-08-29T02:20:00.046Z,0
2022-08-29T02:21:00.283Z,0
2022-08-29T02:22:00.685Z,0.03888888888888889
2022-08-29T02:23:00.315Z,0
2022-08-29T02:24:07.622Z,0.14166666666666666
2022-08-29T02:25:00.999Z,0.5555555555555556
2022-08-29T02:26:00.707Z,0.11388888888888887
2022-08-29T02:27:00.420Z,0.09999999999999999
2022-08-29T02:28:00.261Z,0.2777777777777778
2022-08-29T02:29:02.136Z,0.13055555555555554
2022-08-29T02:30:00.947Z,0.15833333333333333
2022-08-29T02:31:00.757Z,0
2022-08-29T02:32:00.500Z,0
2022-08-29T02:33:00.151Z,0
2022-08-29T02:34:05.345Z,0
2022-08-29T02:35:01.277Z,0
2022-08-29T02:36:01.404Z,0.11944444444444444
2022-08-29T02:37:01.175Z,0
2022-08-29T02:38:00.865Z,0.15833333333333333
2022-08-29T02:39:08.588Z,0
2022-08-29T02:40:01.626Z,0
2022-08-29T02:41:01.328Z,0
2022-08-29T02:42:01.062Z,0
2022-08-29T02:43:00.925Z,0.4361111111111111
2022-08-29T02:44:11.196Z,0.35833333333333334
2022-08-29T02:45:00.617Z,0.15833333333333333
2022-08-29T02:46:00.304Z,0
2022-08-29T02:47:00.035Z,0.15833333333333333
2022-08-29T02:47:59.849Z,0.4666666666666666
2022-08-29T02:49:12.562Z,0
2022-08-29T02:50:00.835Z,0.03888888888888889
2022-08-29T02:51:00.685Z,0.35833333333333334
2022-08-29T02:52:00.493Z,0.11944444444444444
2022-08-29T02:53:00.264Z,0.11111111111111112
2022-08-29T02:54:00.108Z,0.03888888888888889
2022-08-29T02:54:59.863Z,0
2022-08-29T02:56:01.628Z,0.11944444444444444
2022-08-29T02:57:01.310Z,0.23888888888888887
2022-08-29T02:58:01.119Z,0
2022-08-29T02:59:01.090Z,0.019444444444444445
2022-08-29T03:00:00.832Z,0
2022-08-29T03:01:00.659Z,0.19999999999999998
2022-08-29T03:02:00.455Z,0.35833333333333334
2022-08-29T03:03:00.873Z,0.03888888888888889
2022-08-29T03:04:00.623Z,0.23888888888888887
2022-08-29T03:05:00.363Z,0.03888888888888889
2022-08-29T03:06:00.036Z,0.11944444444444444
2022-08-29T03:06:59.749Z,0.11944444444444444
2022-08-29T03:08:01.484Z,0.35833333333333334
2022-08-29T03:09:01.190Z,0.4527777777777777
2022-08-29T03:10:00.869Z,0.2333333333333333
2022-08-29T03:11:00.501Z,0.14166666666666666
2022-08-29T03:12:00.191Z,0
2022-08-29T03:12:59.991Z,0.11944444444444444
2022-08-29T03:13:59.825Z,0.23888888888888887
2022-08-29T03:15:01.629Z,0
2022-08-29T03:16:01.403Z,0.23888888888888887
2022-08-29T03:17:01.139Z,0.35833333333333334
2022-08-29T03:18:01.182Z,0.11944444444444444
2022-08-29T03:19:01.162Z,0
2022-08-29T03:20:00.843Z,0
2022-08-29T03:21:00.565Z,0.15833333333333333
2022-08-29T03:22:00.221Z,0
2022-08-29T03:22:59.981Z,0.3972222222222222
2022-08-29T03:23:59.758Z,0.5333333333333333
2022-08-29T03:25:01.412Z,0
2022-08-29T03:26:01.284Z,0
2022-08-29T03:27:01.391Z,0.3111111111111111
2022-08-29T03:28:01.132Z,0
2022-08-29T03:29:00.914Z,0.38611111111111107
2022-08-29T03:30:00.612Z,0.23888888888888887
2022-08-29T03:31:00.365Z,0.4361111111111111
2022-08-29T03:32:00.079Z,0.5166666666666667
2022-08-29T03:32:59.744Z,0.23888888888888887
2022-08-29T03:34:01.470Z,0.5972222222222222
2022-08-29T03:35:01.164Z,0.26111111111111107
2022-08-29T03:36:00.855Z,0.5972222222222222
2022-08-29T03:37:00.555Z,0.31666666666666665
2022-08-29T03:38:00.259Z,0.675
2022-08-29T03:38:59.949Z,0.15833333333333333
2022-08-29T03:39:59.690Z,0.1388888888888889
2022-08-29T03:41:01.922Z,0.4361111111111111
2022-08-29T03:42:00.504Z,0.47777777777777775
2022-08-29T03:43:00.212Z,0.19999999999999998
2022-08-29T03:43:59.880Z,0.19999999999999998
2022-08-29T03:44:59.573Z,0.17777777777777778
2022-08-29T03:46:01.257Z,0.07777777777777778
2022-08-29T03:47:00.988Z,0.23888888888888887
2022-08-29T03:48:00.729Z,0
2022-08-29T03:49:00.426Z,0.19999999999999998
2022-08-29T03:50:00.188Z,0.01388888888888889
2022-08-29T03:50:59.934Z,0.23888888888888887
2022-08-29T03:51:59.571Z,0.09444444444444444
2022-08-29T03:53:01.971Z,0
2022-08-29T03:54:00.664Z,0
2022-08-29T03:55:00.580Z,0.12777777777777777
2022-08-29T03:56:00.283Z,0.19999999999999998
2022-08-29T03:56:59.971Z,0.2777777777777778
2022-08-29T03:57:59.843Z,0.15833333333333333
2022-08-29T03:59:01.515Z,0
2022-08-29T04:00:01.740Z,0
2022-08-29T04:01:01.531Z,0.08055555555555555
2022-08-29T04:02:01.295Z,0
2022-08-29T04:03:01.021Z,0.08055555555555555
2022-08-29T04:04:00.732Z,0
2022-08-29T04:05:08.012Z,0.4361111111111111
2022-08-29T04:06:00.865Z,0.11944444444444444
2022-08-29T04:07:00.555Z,0.3972222222222222
2022-08-29T04:08:00.248Z,0.15833333333333333
2022-08-29T04:08:59.948Z,0.23888888888888887
2022-08-29T04:10:07.789Z,0.2777777777777778
2022-08-29T04:11:00.792Z,0.6361111111111111
2022-08-29T04:12:00.435Z,0.35833333333333334
2022-08-29T04:13:00.182Z,0.19999999999999998
2022-08-29T04:14:00.283Z,0.5166666666666667
2022-08-29T04:15:10.824Z,0.3
2022-08-29T04:16:01.026Z,0
2022-08-29T04:17:00.815Z,0.33888888888888885
2022-08-29T04:18:00.511Z,0.3972222222222222
2022-08-29T04:19:00.239Z,0.23888888888888887
2022-08-29T04:20:13.349Z,0.15833333333333333
2022-08-29T04:21:00.959Z,0.15833333333333333
2022-08-29T04:22:00.750Z,0.8194444444444444
2022-08-29T04:23:00.597Z,0.19999999999999998
2022-08-29T04:24:00.258Z,0.11666666666666665
2022-08-29T04:25:14.257Z,0
2022-08-29T04:26:26.823Z,0
2022-08-29T04:27:01.189Z,0
2022-08-29T04:28:00.895Z,0.35833333333333334
2022-08-29T04:29:00.615Z,0.23888888888888887
2022-08-29T04:30:15.523Z,0.08055555555555555
2022-08-29T04:31:01.455Z,0.31666666666666665
2022-08-29T04:32:01.319Z,0.31666666666666665
2022-08-29T04:33:01.118Z,0.7138888888888888
2022-08-29T04:34:01.149Z,0.03888888888888889
2022-08-29T04:35:00.835Z,0.1388888888888889
2022-08-29T04:36:00.742Z,0.31666666666666665
2022-08-29T04:37:00.502Z,0.08055555555555555
2022-08-29T04:38:00.423Z,0
2022-08-29T04:39:00.159Z,0.15833333333333333
2022-08-29T04:40:00.112Z,0
2022-08-29T04:40:59.959Z,0
2022-08-29T04:41:59.621Z,0
2022-08-29T04:43:01.404Z,0
2022-08-29T04:44:01.121Z,0
2022-08-29T04:45:00.907Z,0
2022-08-29T04:46:01.907Z,0
2022-08-29T04:47:01.421Z,0
2022-08-29T04:48:03.456Z,0
2022-08-29T04:49:04.195Z,0
2022-08-29T04:50:01.039Z,0
2022-08-29T04:51:00.741Z,0
2022-08-29T04:52:00.446Z,0
2022-08-29T04:53:00.283Z,0
2022-08-29T04:54:01.303Z,0
2022-08-29T04:55:00.962Z,0
2022-08-29T04:56:00.781Z,0
2022-08-29T04:57:00.496Z,0
2022-08-29T04:58:01.410Z,0
2022-08-29T04:59:01.244Z,0
2022-08-29T05:00:00.925Z,0.2777777777777778
2022-08-29T05:01:01.014Z,0
2022-08-29T05:02:00.867Z,0
2022-08-29T05:03:00.714Z,0
2022-08-29T05:04:01.205Z,0
2022-08-29T05:05:00.915Z,0
2022-08-29T05:06:00.590Z,0
2022-08-29T05:07:00.365Z,0
2022-08-29T05:08:00.037Z,0
2022-08-29T05:09:00.223Z,0.15833333333333333
2022-08-29T05:10:00.042Z,0.3972222222222222
2022-08-29T05:10:59.613Z,0.11944444444444444
2022-08-29T05:12:01.388Z,0.23888888888888887
2022-08-29T05:13:01.350Z,0.2777777777777778
2022-08-29T05:14:01.062Z,0.03888888888888889
2022-08-29T05:15:00.986Z,0
2022-08-29T05:16:00.719Z,0
2022-08-29T05:17:01.202Z,0.03888888888888889
2022-08-29T05:18:00.905Z,0.19722222222222222
2022-08-29T05:19:00.696Z,0.23888888888888887
2022-08-29T05:20:00.421Z,0.15833333333333333
2022-08-29T05:21:00.315Z,0.08055555555555555
2022-08-29T05:22:00.016Z,0.19999999999999998
2022-08-29T05:22:59.710Z,0.03888888888888889
2022-08-29T05:24:01.368Z,0
2022-08-29T05:25:01.223Z,0.23888888888888887
2022-08-29T05:26:01.493Z,0
2022-08-29T05:27:01.185Z,0.2777777777777778
2022-08-29T05:28:00.870Z,0.19999999999999998
2022-08-29T05:29:00.520Z,0
2022-08-29T05:30:00.175Z,0.19999999999999998
2022-08-29T05:31:00.163Z,0.10277777777777777
2022-08-29T05:32:00.034Z,0.19999999999999998
2022-08-29T05:32:59.774Z,0
2022-08-29T05:34:01.530Z,0.3527777777777778
2022-08-29T05:35:01.858Z,0.23888888888888887
2022-08-29T05:36:01.341Z,0.5277777777777778
2022-08-29T05:37:00.729Z,0.10277777777777777
2022-08-29T05:38:00.456Z,0.14722222222222223
2022-08-29T05:39:00.136Z,0.15833333333333333
2022-08-29T05:40:00.257Z,0.15833333333333333
2022-08-29T05:41:00.038Z,0.16666666666666666
2022-08-29T05:42:00.421Z,0.675
2022-08-29T05:43:00.166Z,0.8333333333333333
2022-08-29T05:44:01.179Z,0.15833333333333333
2022-08-29T05:45:01.102Z,0.05833333333333333
2022-08-29T05:46:00.751Z,0
2022-08-29T05:47:01.617Z,0.03888888888888889
2022-08-29T05:48:01.801Z,0
2022-08-29T05:49:01.420Z,0.15833333333333333
2022-08-29T05:50:01.129Z,0.15833333333333333
2022-08-29T05:51:03.327Z,0.1611111111111111
2022-08-29T05:52:01.325Z,0.2777777777777778
2022-08-29T05:53:01.123Z,0.03888888888888889
2022-08-29T05:54:01.089Z,0.11944444444444444
2022-08-29T05:55:00.853Z,0.08055555555555555
2022-08-29T05:56:02.790Z,0.11944444444444444
2022-08-29T05:57:01.429Z,0.03888888888888889
2022-08-29T05:58:01.078Z,0.19999999999999998
2022-08-29T05:59:00.762Z,0.23888888888888887
2022-08-29T06:00:00.415Z,0.5555555555555556
2022-08-29T06:01:09.517Z,0.23888888888888887
2022-08-29T06:02:02.426Z,0.03888888888888889
2022-08-29T06:03:01.679Z,0.2777777777777778
2022-08-29T06:04:01.232Z,0.4361111111111111
2022-08-29T06:05:01.116Z,0.15833333333333333
2022-08-29T06:06:14.207Z,0.6361111111111111
2022-08-29T06:07:01.447Z,0.15833333333333333
2022-08-29T06:08:01.163Z,0
2022-08-29T06:09:00.949Z,0.23888888888888887
2022-08-29T06:10:03.872Z,0.15833333333333333
2022-08-29T06:11:00.755Z,0.11944444444444444
2022-08-29T06:12:00.584Z,0.23888888888888887
2022-08-29T06:13:00.354Z,0.35833333333333334
2022-08-29T06:14:00.099Z,0.03888888888888889
2022-08-29T06:14:59.886Z,0
2022-08-29T06:15:59.567Z,0.15833333333333333
2022-08-29T06:17:01.749Z,0.3972222222222222
2022-08-29T06:18:01.305Z,0.875
2022-08-29T06:19:00.996Z,0.15833333333333333
2022-08-29T06:20:00.634Z,1.2305555555555554
2022-08-29T06:21:00.358Z,0.7138888888888888
2022-08-29T06:22:00.023Z,0.5166666666666667
2022-08-29T06:22:59.841Z,0.5833333333333334
2022-08-29T06:24:01.555Z,0.23888888888888887
2022-08-29T06:25:08.618Z,0.5555555555555556
2022-08-29T06:26:01.086Z,0.875
2022-08-29T06:27:00.733Z,0.2777777777777778
2022-08-29T06:28:00.856Z,0.11944444444444444
2022-08-29T06:29:01.564Z,0.5972222222222222
2022-08-29T06:30:02.169Z,0.7194444444444444
2022-08-29T06:31:01.476Z,0.7138888888888888
2022-08-29T06:32:01.292Z,0.3972222222222222
2022-08-29T06:33:00.968Z,0.3972222222222222
2022-08-29T06:34:00.797Z,0.6888888888888889
2022-08-29T06:35:00.436Z,0.47777777777777775
2022-08-29T06:36:00.232Z,0.925
2022-08-29T06:36:59.924Z,0.888888888888889
2022-08-29T06:37:59.911Z,0.9138888888888889
2022-08-29T06:38:59.568Z,0.5555555555555556
2022-08-29T06:40:02.241Z,0.5555555555555556
2022-08-29T06:41:01.369Z,0.675
2022-08-29T06:42:01.495Z,0.4361111111111111
2022-08-29T06:43:01.393Z,0.4361111111111111
2022-08-29T06:44:01.143Z,0.5166666666666667
2022-08-29T06:45:00.785Z,0.6361111111111111
2022-08-29T06:46:00.504Z,0.5166666666666667
2022-08-29T06:47:00.268Z,0.4361111111111111
2022-08-29T06:47:59.961Z,1.1916666666666667
2022-08-29T06:48:59.685Z,0.6361111111111111
2022-08-29T06:50:01.428Z,0.5972222222222222
2022-08-29T06:51:01.111Z,0.3972222222222222
2022-08-29T06:52:01.198Z,0.2777777777777778
2022-08-29T06:53:14.767Z,1.1555555555555557
2022-08-29T06:54:00.716Z,0.8333333333333333
2022-08-29T06:55:00.734Z,0.5555555555555556
2022-08-29T06:56:00.953Z,1.152777777777778
2022-08-29T06:57:00.758Z,0.9527777777777778
2022-08-29T06:58:00.483Z,0.7944444444444444
2022-08-29T06:59:00.242Z,0.23888888888888887
2022-08-29T06:59:59.860Z,0.7138888888888888
2022-08-29T07:01:01.383Z,0.9138888888888889
2022-08-29T07:02:01.079Z,1.2416666666666665
2022-08-29T07:03:00.697Z,1.1111111111111112
2022-08-29T07:04:00.422Z,1.0333333333333334
2022-08-29T07:05:00.177Z,0.675
2022-08-29T07:05:59.869Z,0.8138888888888889
2022-08-29T07:07:01.801Z,0.2777777777777778
2022-08-29T07:08:01.530Z,0.5166666666666667
2022-08-29T07:09:01.265Z,0.47777777777777775
2022-08-29T07:10:01.145Z,0.35833333333333334
2022-08-29T07:11:00.930Z,0.675
2022-08-29T07:12:00.749Z,1.325
2022-08-29T07:13:00.431Z,0.9527777777777778
2022-08-29T07:14:00.163Z,0.47777777777777775
2022-08-29T07:14:59.791Z,0.31666666666666665
2022-08-29T07:16:01.532Z,0
2022-08-29T07:17:01.281Z,0.2333333333333333
2022-08-29T07:18:01.922Z,0.3972222222222222
2022-08-29T07:19:01.108Z,0.9527777777777778
2022-08-29T07:20:00.579Z,0.5555555555555556
2022-08-29T07:21:00.282Z,0.31666666666666665
2022-08-29T07:22:00.316Z,0.4861111111111111
2022-08-29T07:23:00.015Z,0.08055555555555555
2022-08-29T07:23:59.801Z,0.1388888888888889
2022-08-29T07:25:02.368Z,0.23888888888888887
2022-08-29T07:26:01.232Z,0.5972222222222222
2022-08-29T07:27:00.933Z,1.2111111111111112
2022-08-29T07:28:00.647Z,0.3638888888888889
2022-08-29T07:29:00.371Z,0.875
2022-08-29T07:30:01.053Z,0.675
2022-08-29T07:31:00.934Z,0.6361111111111111
2022-08-29T07:32:02.285Z,0.875
2022-08-29T07:33:00.779Z,0.5166666666666667
2022-08-29T07:34:02.721Z,0.3833333333333333
2022-08-29T07:35:01.504Z,0.31666666666666665
2022-08-29T07:36:01.334Z,1.0333333333333334
2022-08-29T07:37:07.110Z,0.5555555555555556
2022-08-29T07:38:00.925Z,0.8333333333333333
2022-08-29T07:39:00.648Z,1.1166666666666665
2022-08-29T07:40:00.535Z,0.7138888888888888
2022-08-29T07:41:01.299Z,0.47777777777777775
2022-08-29T07:42:11.748Z,0.7555555555555555
2022-08-29T07:43:00.951Z,1.4694444444444443
2022-08-29T07:44:00.658Z,0.7555555555555555
2022-08-29T07:45:00.339Z,1.1111111111111112
2022-08-29T07:46:00.131Z,1.9416666666666667
2022-08-29T07:46:59.944Z,1.238888888888889
2022-08-29T07:47:59.648Z,0.4361111111111111
2022-08-29T07:49:01.400Z,1.2111111111111112
2022-08-29T07:50:01.059Z,1.3111111111111111
2022-08-29T07:51:00.791Z,1.2722222222222221
2022-08-29T07:52:00.486Z,1.6277777777777778
2022-08-29T07:53:00.458Z,0.9944444444444445
2022-08-29T07:54:00.231Z,0.875
2022-08-29T07:55:01.792Z,0.8916666666666666
2022-08-29T07:56:01.124Z,0.47777777777777775
2022-08-29T07:57:00.733Z,0.7944444444444444
2022-08-29T07:58:00.424Z,0.9527777777777778
2022-08-29T07:59:00.137Z,1.7083333333333335
2022-08-29T07:59:59.916Z,1.2305555555555554
2022-08-29T08:00:59.809Z,1.8666666666666665
2022-08-29T08:02:03.109Z,1.5166666666666666
2022-08-29T08:03:00.790Z,1.0333333333333334
2022-08-29T08:04:01.016Z,0.9527777777777778
2022-08-29T08:05:00.779Z,0.7138888888888888
2022-08-29T08:06:00.992Z,1.0333333333333334
2022-08-29T08:07:00.709Z,0.5972222222222222
2022-08-29T08:08:05.284Z,0.675
2022-08-29T08:09:01.715Z,0.47777777777777775
2022-08-29T08:10:01.685Z,1.5888888888888888
2022-08-29T08:11:01.978Z,0.2777777777777778
2022-08-29T08:12:03.875Z,0.5166666666666667
2022-08-29T08:13:00.740Z,0.33055555555555555
2022-08-29T08:14:00.441Z,0.6666666666666666
2022-08-29T08:15:00.129Z,0.3972222222222222
2022-08-29T08:15:59.935Z,1.0333333333333334
2022-08-29T08:16:59.906Z,0.3027777777777778
2022-08-29T08:17:59.634Z,0.47777777777777775
2022-08-29T08:19:02.129Z,0.7833333333333332
2022-08-29T08:20:01.589Z,1.7083333333333335
2022-08-29T08:21:00.878Z,0.675
2022-08-29T08:22:00.806Z,1.35
2022-08-29T08:23:00.640Z,0.675
2022-08-29T08:24:00.450Z,0.6361111111111111
2022-08-29T08:25:00.536Z,0.9527777777777778
2022-08-29T08:26:00.558Z,1.0333333333333334
2022-08-29T08:27:00.572Z,1.4694444444444443
2022-08-29T08:28:00.327Z,0.7555555555555555
2022-08-29T08:28:59.977Z,2.4972222222222222
2022-08-29T08:30:00.058Z,0.5972222222222222
2022-08-29T08:31:05.029Z,0.675
2022-08-29T08:32:01.049Z,0.7944444444444444
2022-08-29T08:33:01.590Z,1.7472222222222222
2022-08-29T08:34:00.673Z,1.1111111111111112
2022-08-29T08:35:00.361Z,1.35
2022-08-29T08:36:00.067Z,1.4694444444444443
2022-08-29T08:36:59.751Z,0.9138888888888889
2022-08-29T08:38:01.512Z,0.7944444444444444
2022-08-29T08:39:02.279Z,1.2305555555555554
2022-08-29T08:40:01.267Z,0.35833333333333334
2022-08-29T08:41:01.020Z,0.7555555555555555
2022-08-29T08:42:00.710Z,1.1916666666666667
2022-08-29T08:43:00.426Z,0.7555555555555555
2022-08-29T08:44:01.215Z,1.2555555555555553
2022-08-29T08:45:00.935Z,0.4361111111111111
2022-08-29T08:46:00.683Z,1.0333333333333334
2022-08-29T08:47:00.479Z,0.875
2022-08-29T08:48:00.158Z,0.9138888888888889
2022-08-29T08:48:59.835Z,0.5972222222222222
2022-08-29T08:50:01.588Z,0.35833333333333334
2022-08-29T08:51:01.303Z,0.7138888888888888
2022-08-29T08:52:01.627Z,0.5555555555555556
2022-08-29T08:53:01.097Z,0.4555555555555555
2022-08-29T08:54:00.799Z,0.39444444444444443
2022-08-29T08:55:00.622Z,1.4055555555555554
2022-08-29T08:56:00.321Z,1.3111111111111111
2022-08-29T08:57:02.226Z,1.9055555555555557
2022-08-29T08:58:01.337Z,1.1333333333333333
2022-08-29T08:59:01.038Z,1.1111111111111112
2022-08-29T09:00:00.996Z,0.5555555555555556
2022-08-29T09:01:00.894Z,0.5166666666666667
2022-08-29T09:02:06.569Z,1.35
2022-08-29T09:03:00.784Z,2.047222222222222
2022-08-29T09:04:00.560Z,0.4361111111111111
2022-08-29T09:05:00.292Z,1.152777777777778
2022-08-29T09:06:00.411Z,1.2305555555555554
2022-08-29T09:07:00.183Z,0.7138888888888888
2022-08-29T09:07:59.917Z,1.0638888888888889
2022-08-29T09:08:59.674Z,2.025
2022-08-29T09:10:01.409Z,1.0333333333333334
2022-08-29T09:11:01.105Z,1.0055555555555555
2022-08-29T09:12:00.743Z,0.675
2022-08-29T09:13:00.510Z,1.525
2022-08-29T09:14:00.329Z,1.5888888888888888
2022-08-29T09:15:00.005Z,1.5888888888888888
2022-08-29T09:15:59.700Z,0.7555555555555555
2022-08-29T09:17:01.467Z,0.875
2022-08-29T09:18:00.640Z,0.9222222222222222
2022-08-29T09:19:00.357Z,0.9138888888888889
2022-08-29T09:20:00.347Z,0.5555555555555556
2022-08-29T09:21:00.019Z,0.5944444444444444
2022-08-29T09:21:59.761Z,1.488888888888889
2022-08-29T09:23:02.848Z,0.7138888888888888
2022-08-29T09:24:01.515Z,0.875
2022-08-29T09:25:01.200Z,1.2305555555555554
2022-08-29T09:26:00.894Z,1.2722222222222221
2022-08-29T09:27:00.592Z,0.47777777777777775
2022-08-29T09:28:04.849Z,0.6361111111111111
2022-08-29T09:29:01.437Z,0.875
2022-08-29T09:30:01.131Z,1.0722222222222222
2022-08-29T09:31:01.056Z,1.152777777777778
2022-08-29T09:32:00.553Z,0.3972222222222222
2022-08-29T09:33:09.100Z,0.5972222222222222
2022-08-29T09:34:00.859Z,0.675
2022-08-29T09:35:09.297Z,0.15833333333333333
2022-08-29T09:36:01.574Z,0.5972222222222222
2022-08-29T09:37:01.295Z,1.152777777777778
2022-08-29T09:38:10.513Z,1.2305555555555554
2022-08-29T09:39:01.120Z,1.35
2022-08-29T09:40:00.858Z,0.8333333333333333
2022-08-29T09:41:00.726Z,0.47777777777777775
2022-08-29T09:42:00.487Z,1.036111111111111
2022-08-29T09:43:10.610Z,0.5805555555555555
2022-08-29T09:44:01.519Z,0.5555555555555556
2022-08-29T09:45:01.330Z,1.4083333333333334
2022-08-29T09:46:01.097Z,1.1916666666666667
2022-08-29T09:47:00.726Z,0.7138888888888888
2022-08-29T09:48:13.961Z,1.2305555555555554
2022-08-29T09:49:01.425Z,1.6277777777777778
2022-08-29T09:50:01.161Z,0.8333333333333333
2022-08-29T09:51:00.982Z,1.35
2022-08-29T09:52:00.726Z,1.086111111111111
2022-08-29T09:53:00.474Z,0.3972222222222222
2022-08-29T09:54:00.170Z,1.4694444444444443
2022-08-29T09:54:59.865Z,1.1916666666666667
2022-08-29T09:56:01.514Z,1.375
2022-08-29T09:57:01.204Z,1.152777777777778
2022-08-29T09:58:00.904Z,1.7472222222222222
2022-08-29T09:59:00.634Z,0.47777777777777775
2022-08-29T10:00:00.270Z,1.0722222222222222
2022-08-29T10:01:00.508Z,0.6361111111111111
2022-08-29T10:02:00.277Z,0.5555555555555556
2022-08-29T10:02:59.930Z,1.0333333333333334
2022-08-29T10:03:59.633Z,1.4305555555555556
2022-08-29T10:05:01.379Z,0.7138888888888888
2022-08-29T10:06:00.875Z,0.44166666666666665
2022-08-29T10:07:00.553Z,0.9527777777777778
2022-08-29T10:08:00.225Z,0.9749999999999999
2022-08-29T10:09:00.082Z,1.152777777777778
2022-08-29T10:09:59.762Z,0.9944444444444445
2022-08-29T10:11:01.780Z,1.2305555555555554
2022-08-29T10:12:01.097Z,1.9472222222222222
2022-08-29T10:13:00.903Z,1.1111111111111112
2022-08-29T10:14:00.780Z,1.45
2022-08-29T10:15:00.534Z,1.0333333333333334
2022-08-29T10:16:00.306Z,0.7166666666666667
2022-08-29T10:17:01.397Z,1.152777777777778
2022-08-29T10:18:01.076Z,1.3111111111111111
2022-08-29T10:19:00.820Z,1.2722222222222221
2022-08-29T10:20:00.574Z,0.961111111111111
2022-08-29T10:21:00.447Z,1.55
2022-08-29T10:22:00.190Z,0.9944444444444445
2022-08-29T10:23:01.187Z,0.9749999999999999
2022-08-29T10:24:02.319Z,0.5527777777777778
2022-08-29T10:25:00.902Z,1.152777777777778
2022-08-29T10:26:00.691Z,1.2722222222222221
2022-08-29T10:27:00.416Z,1.2305555555555554